Terminal Aerodrome Forecast
Issued by NWS Louisville, KY

Home | Current Version | Previous Version | Text Only | Print | Product List | Glossary On
Versions: 1 2 3 4 5 6 7 8 9 10 11 12 13 14
647
FTUS43 KLMK 232343
TAFSDF
TAF
KSDF 232343Z 2400/2506 20004KT P6SM BKN110
     FM241300 VRB05KT P6SM -SHRA BKN100
     FM241600 VRB06KT 4SM -SHRA BR BKN030
     FM241900 30007KT 4SM -SHRA BR BKN015
     FM250300 27006KT P6SM BKN030=

USA.gov is the U.S. government's official web portal to all federal, state and local government web resources and services.